createdAt,value
2022-09-25T22:45:46.073Z,623.46
2022-09-25T22:46:45.987Z,623.40
2022-09-25T22:47:45.958Z,623.42
2022-09-25T22:48:45.968Z,623.42
2022-09-25T22:49:45.936Z,623.42
2022-09-25T22:50:45.930Z,623.45
2022-09-25T22:51:45.933Z,623.45
2022-09-25T22:52:45.909Z,623.47
2022-09-25T22:53:45.894Z,623.49
2022-09-25T22:54:45.896Z,623.50
2022-09-25T22:55:45.870Z,623.50
2022-09-25T22:56:45.865Z,623.49
2022-09-25T22:57:45.900Z,623.51
2022-09-25T22:58:45.856Z,623.54
2022-09-25T22:59:45.825Z,623.58
2022-09-25T23:00:45.828Z,623.59
2022-09-25T23:01:46.040Z,623.59
2022-09-25T23:02:45.819Z,623.60
2022-09-25T23:03:45.786Z,623.60
2022-09-25T23:04:45.862Z,623.61
2022-09-25T23:05:45.869Z,623.63
2022-09-25T23:06:45.796Z,623.64
2022-09-25T23:07:45.757Z,623.66
2022-09-25T23:08:45.747Z,623.61
2022-09-25T23:09:45.743Z,623.54
2022-09-25T23:11:06.133Z,623.57
2022-09-25T23:11:45.745Z,623.61
2022-09-25T23:12:45.713Z,623.62
2022-09-25T23:13:45.692Z,623.64
2022-09-25T23:14:45.676Z,623.64
2022-09-25T23:15:45.649Z,623.60
2022-09-25T23:16:45.709Z,623.57
2022-09-25T23:17:45.727Z,623.57
2022-09-25T23:18:45.636Z,623.56
2022-09-25T23:19:45.630Z,623.57
2022-09-25T23:20:45.598Z,623.52
2022-09-25T23:21:45.598Z,623.50
2022-09-25T23:22:45.590Z,623.52
2022-09-25T23:23:45.564Z,623.55
2022-09-25T23:24:45.583Z,623.50
2022-09-25T23:25:45.555Z,623.51
2022-09-25T23:26:45.551Z,623.48
2022-09-25T23:27:45.516Z,623.48
2022-09-25T23:28:45.541Z,623.48
2022-09-25T23:29:45.517Z,623.51
2022-09-25T23:30:45.581Z,623.52
2022-09-25T23:31:45.474Z,623.49
2022-09-25T23:32:45.476Z,623.49
2022-09-25T23:33:45.491Z,623.49
2022-09-25T23:34:45.446Z,623.48
2022-09-25T23:35:45.431Z,623.47
2022-09-25T23:36:45.427Z,623.45
2022-09-25T23:37:45.404Z,623.43
2022-09-25T23:38:45.424Z,623.41
2022-09-25T23:39:45.383Z,623.40
2022-09-25T23:40:45.458Z,623.41
2022-09-25T23:41:45.370Z,623.41
2022-09-25T23:42:45.368Z,623.41
2022-09-25T23:43:45.357Z,623.42
2022-09-25T23:44:45.334Z,623.45
2022-09-25T23:45:45.410Z,623.46
2022-09-25T23:46:45.329Z,623.44
2022-09-25T23:47:45.338Z,623.45
2022-09-25T23:48:45.311Z,623.45
2022-09-25T23:49:45.416Z,623.46
2022-09-25T23:50:45.281Z,623.45
2022-09-25T23:51:45.303Z,623.46
2022-09-25T23:52:45.305Z,623.44
2022-09-25T23:53:45.275Z,623.44
2022-09-25T23:54:45.264Z,623.43
2022-09-25T23:55:45.296Z,623.42
2022-09-25T23:56:45.298Z,623.40
2022-09-25T23:57:45.198Z,623.39
2022-09-25T23:58:45.180Z,623.37
2022-09-25T23:59:45.165Z,623.39
